This is the latest recevied weather packets stored in our database for station/object W4SKW. If no packets are shown the sender has not sent any weather packets the latest 1 day(s).
| Time | Temp. | Humidity | Pressure | Rain* | Wind** | Luminosity | Snow |
|---|---|---|---|---|---|---|---|
| 1778019124 | 22.22° C | 62% | 1013.5 hPa | 0 mm | 0 m/s | 94 W/m² | - |
| 1778018821 | 22.22° C | 62% | 1013.5 hPa | 0 mm | 0 m/s | 94 W/m² | - |
| 1778018519 | 22.22° C | 64% | 1013.7 hPa | 0 mm | 0 m/s | 104 W/m² | - |
| 1778018216 | 22.22° C | 59% | 1013.9 hPa | 0 mm | 0 m/s | 101 W/m² | - |
| 1778017914 | 22.78° C | 58% | 1013.9 hPa | 0 mm | 0 m/s | 133 W/m² | - |
| 1778017611 | 22.78° C | 58% | 1014 hPa | 0 mm | 0 m/s | 107 W/m² | - |
| 1778017309 | 22.78° C | 62% | 1014 hPa | 0 mm | 0 m/s | 116 W/m² | - |
| 1778017006 | 22.78° C | 58% | 1014.2 hPa | 0 mm | 0 m/s | 113 W/m² | - |
| 1778016703 | 22.78° C | 53% | 1014.1 hPa | 0 mm | 0 m/s | 106 W/m² | - |
| 1778016398 | 22.78° C | 63% | 1013.9 hPa | 0 mm | 0 m/s | 128 W/m² | - |
| 1778016096 | 23.89° C | 45% | 1014 hPa | 0 mm | 0 m/s | 118 W/m² | - |
| 1778015793 | 23.33° C | 61% | 1013.9 hPa | 0 mm | 0 m/s | 101 W/m² | - |
| 1778015490 | 23.89° C | 57% | 1013.9 hPa | 0 mm | 0 m/s | 132 W/m² | - |
| 1778015187 | 24.44° C | 48% | 1013.6 hPa | 0 mm | 0.45 m/s, 335° | 183 W/m² | - |
| 1778014884 | 24.44° C | 46% | 1013.7 hPa | 0 mm | 0 m/s | 213 W/m² | - |
| 1778014581 | 25° C | 44% | 1013.7 hPa | 0 mm | 0 m/s | 154 W/m² | - |
| 1778014279 | 25° C | 57% | 1013.9 hPa | 0 mm | 0 m/s | 382 W/m² | - |
| 1778013976 | 25.56° C | 42% | 1014 hPa | 0 mm | 0.45 m/s, 261° | 324 W/m² | - |
| 1778013674 | 25.56° C | 42% | 1014.1 hPa | 0 mm | 1.79 m/s, 244° | 267 W/m² | - |
| 1778013370 | 25.56° C | 42% | 1014.1 hPa | 0 mm | 1.79 m/s, 330° | 312 W/m² | - |
| 1778013067 | 26.11° C | 42% | 1014.2 hPa | 0 mm | 0.45 m/s, 301° | 355 W/m² | - |
| 1778012763 | 26.67° C | 42% | 1014.1 hPa | 0 mm | 1.79 m/s, 349° | 388 W/m² | - |
| 1778012459 | 26.67° C | 39% | 1014.4 hPa | 0 mm | 0.89 m/s, 270° | 592 W/m² | - |
| 1778012156 | 26.67° C | 39% | 1014.4 hPa | 0 mm | 0.89 m/s, 270° | 592 W/m² | - |
| 1778011854 | 26.67° C | 41% | 1014.3 hPa | 0 mm | 0 m/s | 570 W/m² | - |
* Rain latest hour (hover to see other rain measurements)
** Current wind speed in m/s (hover to see current wind gust speed)